Skip Navigation Links Skip Navigation Links

Current Weather

Nioro Du Sahel, Mali

For information only: do not use for flight planning or navigation.
Latest weather
Observation time Tuesday, October 17, 2017 3:00 AM GMT
Local time Tuesday, October 17, 2017 6:03 AM GMT
Flight conditions Visual Meteorological Conditions
Winds
Wind speed calm
Visibility 6.2 mi.
Sky condition
Ceiling unlimited
Sky clear
Temperature 82°F
Dewpoint 63°F
Altimeter 29.97 in.Hg
Derived measurements
Relative humidity 51%
Heat index 83°F
Density altitude 1939 ft.
Remarks
Ceiling and visibility OK.
METAR GANR 170300Z 00000KT CAVOK 28/17 Q1015

Settings

Location code

InnerDrive.Weather 4.0.6144.1 Release CLR 4.0.30319.36366
Copyright ©2015 Inner Drive Technology. All rights reserved. Portions Copyright ©1986-2015 David Braverman.

Find weather

Site navigation


Skip Navigation Links

Place info

Page info

PayPal - The safer, easier way to pay online!

Return home.

Copyright ©2017 Inner Drive Technology. Purveyors of fine, hand-crafted computer software. Page printed 2017-10-17T06:03:24 UTC.